sensor_id;sensor_type;location;lat;lon;timestamp;temperature;humidity
3648;DHT22;1840;48.892;15.312;2023-06-19T00:01:20;11.90;97.00
3648;DHT22;1840;48.892;15.312;2023-06-19T00:03:48;11.80;97.20
3648;DHT22;1840;48.892;15.312;2023-06-19T00:06:16;11.80;97.20
3648;DHT22;1840;48.892;15.312;2023-06-19T00:08:44;11.90;96.80
3648;DHT22;1840;48.892;15.312;2023-06-19T00:11:12;11.90;97.00
3648;DHT22;1840;48.892;15.312;2023-06-19T00:13:42;11.90;96.90
3648;DHT22;1840;48.892;15.312;2023-06-19T00:16:10;11.90;97.20
3648;DHT22;1840;48.892;15.312;2023-06-19T00:18:38;11.90;97.10
3648;DHT22;1840;48.892;15.312;2023-06-19T00:21:08;11.90;97.40
3648;DHT22;1840;48.892;15.312;2023-06-19T00:23:36;11.80;97.10
3648;DHT22;1840;48.892;15.312;2023-06-19T00:26:04;11.80;97.00
3648;DHT22;1840;48.892;15.312;2023-06-19T00:28:33;11.80;97.20
3648;DHT22;1840;48.892;15.312;2023-06-19T00:31:07;11.80;97.20
3648;DHT22;1840;48.892;15.312;2023-06-19T00:33:35;11.80;97.10
3648;DHT22;1840;48.892;15.312;2023-06-19T00:36:09;11.80;97.00
3648;DHT22;1840;48.892;15.312;2023-06-19T00:38:37;11.60;96.90
3648;DHT22;1840;48.892;15.312;2023-06-19T00:41:05;11.60;96.80
3648;DHT22;1840;48.892;15.312;2023-06-19T00:43:33;11.60;96.40
3648;DHT22;1840;48.892;15.312;2023-06-19T00:46:02;11.60;96.40
3648;DHT22;1840;48.892;15.312;2023-06-19T00:48:34;11.60;96.40
3648;DHT22;1840;48.892;15.312;2023-06-19T00:51:02;11.70;96.50
3648;DHT22;1840;48.892;15.312;2023-06-19T00:53:31;11.70;96.50
3648;DHT22;1840;48.892;15.312;2023-06-19T00:56:00;11.80;96.40
3648;DHT22;1840;48.892;15.312;2023-06-19T00:58:29;11.80;96.40
3648;DHT22;1840;48.892;15.312;2023-06-19T01:00:58;11.70;96.50
3648;DHT22;1840;48.892;15.312;2023-06-19T01:03:37;11.50;96.60
3648;DHT22;1840;48.892;15.312;2023-06-19T01:06:07;11.60;96.70
3648;DHT22;1840;48.892;15.312;2023-06-19T01:08:48;11.60;96.70
3648;DHT22;1840;48.892;15.312;2023-06-19T01:11:21;11.40;97.20
3648;DHT22;1840;48.892;15.312;2023-06-19T01:13:55;11.30;97.20
3648;DHT22;1840;48.892;15.312;2023-06-19T01:16:25;11.30;96.90
3648;DHT22;1840;48.892;15.312;2023-06-19T01:18:56;11.30;96.90
3648;DHT22;1840;48.892;15.312;2023-06-19T01:21:24;11.30;96.80
3648;DHT22;1840;48.892;15.312;2023-06-19T01:23:53;11.20;96.70
3648;DHT22;1840;48.892;15.312;2023-06-19T01:26:23;11.00;96.50
3648;DHT22;1840;48.892;15.312;2023-06-19T01:28:55;11.00;96.70
3648;DHT22;1840;48.892;15.312;2023-06-19T01:31:27;11.10;96.80
3648;DHT22;1840;48.892;15.312;2023-06-19T01:33:57;11.00;96.80
3648;DHT22;1840;48.892;15.312;2023-06-19T01:36:27;10.90;96.80
3648;DHT22;1840;48.892;15.312;2023-06-19T01:38:58;10.90;96.70
3648;DHT22;1840;48.892;15.312;2023-06-19T01:41:28;10.80;96.90
3648;DHT22;1840;48.892;15.312;2023-06-19T01:43:57;10.70;97.00
3648;DHT22;1840;48.892;15.312;2023-06-19T01:46:26;10.60;97.50
3648;DHT22;1840;48.892;15.312;2023-06-19T01:48:54;10.70;97.20
3648;DHT22;1840;48.892;15.312;2023-06-19T01:51:23;10.80;97.00
3648;DHT22;1840;48.892;15.312;2023-06-19T01:53:51;10.80;97.10
3648;DHT22;1840;48.892;15.312;2023-06-19T01:56:20;10.80;97.20
3648;DHT22;1840;48.892;15.312;2023-06-19T01:58:50;10.80;97.20
3648;DHT22;1840;48.892;15.312;2023-06-19T02:01:18;10.70;97.50
3648;DHT22;1840;48.892;15.312;2023-06-19T02:03:47;10.70;97.80
3648;DHT22;1840;48.892;15.312;2023-06-19T02:06:15;10.70;97.50
3648;DHT22;1840;48.892;15.312;2023-06-19T02:08:43;10.80;97.40
3648;DHT22;1840;48.892;15.312;2023-06-19T02:11:11;10.80;97.40
3648;DHT22;1840;48.892;15.312;2023-06-19T02:13:40;10.60;97.10
3648;DHT22;1840;48.892;15.312;2023-06-19T02:16:08;10.50;97.30
3648;DHT22;1840;48.892;15.312;2023-06-19T02:18:36;10.40;97.40
3648;DHT22;1840;48.892;15.312;2023-06-19T02:21:04;10.40;97.40
3648;DHT22;1840;48.892;15.312;2023-06-19T02:23:32;10.40;97.40
3648;DHT22;1840;48.892;15.312;2023-06-19T02:26:00;10.20;97.60
3648;DHT22;1840;48.892;15.312;2023-06-19T02:28:28;10.10;97.70
3648;DHT22;1840;48.892;15.312;2023-06-19T02:30:58;10.10;97.40
3648;DHT22;1840;48.892;15.312;2023-06-19T02:33:26;10.20;97.30
3648;DHT22;1840;48.892;15.312;2023-06-19T02:35:55;10.20;97.40
3648;DHT22;1840;48.892;15.312;2023-06-19T02:38:26;10.20;97.40
3648;DHT22;1840;48.892;15.312;2023-06-19T02:40:55;10.20;97.70
3648;DHT22;1840;48.892;15.312;2023-06-19T02:43:24;10.30;97.30
3648;DHT22;1840;48.892;15.312;2023-06-19T02:45:52;10.20;97.20
3648;DHT22;1840;48.892;15.312;2023-06-19T02:48:21;10.10;97.00
3648;DHT22;1840;48.892;15.312;2023-06-19T02:50:50;10.10;97.30
3648;DHT22;1840;48.892;15.312;2023-06-19T02:53:18;10.00;97.40
3648;DHT22;1840;48.892;15.312;2023-06-19T02:55:46;10.10;97.40
3648;DHT22;1840;48.892;15.312;2023-06-19T02:58:14;10.10;97.40
3648;DHT22;1840;48.892;15.312;2023-06-19T03:00:43;10.20;97.20
3648;DHT22;1840;48.892;15.312;2023-06-19T03:03:11;10.10;97.20
3648;DHT22;1840;48.892;15.312;2023-06-19T03:05:41;9.90;97.20
3648;DHT22;1840;48.892;15.312;2023-06-19T03:08:09;9.90;97.50
3648;DHT22;1840;48.892;15.312;2023-06-19T03:10:37;9.90;97.50
3648;DHT22;1840;48.892;15.312;2023-06-19T03:13:05;9.70;97.20
3648;DHT22;1840;48.892;15.312;2023-06-19T03:15:33;9.70;97.40
3648;DHT22;1840;48.892;15.312;2023-06-19T03:18:01;9.50;97.70
3648;DHT22;1840;48.892;15.312;2023-06-19T03:20:33;9.50;98.00
3648;DHT22;1840;48.892;15.312;2023-06-19T03:23:03;9.50;98.20
3648;DHT22;1840;48.892;15.312;2023-06-19T03:25:31;9.60;98.40
3648;DHT22;1840;48.892;15.312;2023-06-19T03:28:02;9.60;98.60
3648;DHT22;1840;48.892;15.312;2023-06-19T03:30:30;9.70;98.50
3648;DHT22;1840;48.892;15.312;2023-06-19T03:32:58;9.70;98.50
3648;DHT22;1840;48.892;15.312;2023-06-19T03:35:26;9.70;98.30
3648;DHT22;1840;48.892;15.312;2023-06-19T03:37:55;9.60;98.50
3648;DHT22;1840;48.892;15.312;2023-06-19T03:40:24;9.60;98.40
3648;DHT22;1840;48.892;15.312;2023-06-19T03:42:55;9.60;98.20
3648;DHT22;1840;48.892;15.312;2023-06-19T03:45:23;9.50;98.30
3648;DHT22;1840;48.892;15.312;2023-06-19T03:47:51;9.40;98.70
3648;DHT22;1840;48.892;15.312;2023-06-19T03:50:19;9.30;99.00
3648;DHT22;1840;48.892;15.312;2023-06-19T03:52:51;9.40;99.00
3648;DHT22;1840;48.892;15.312;2023-06-19T03:55:19;9.50;98.90
3648;DHT22;1840;48.892;15.312;2023-06-19T03:57:49;9.60;99.10
3648;DHT22;1840;48.892;15.312;2023-06-19T04:00:17;9.80;99.10
3648;DHT22;1840;48.892;15.312;2023-06-19T04:02:45;9.80;99.40
3648;DHT22;1840;48.892;15.312;2023-06-19T04:05:14;9.80;99.50
3648;DHT22;1840;48.892;15.312;2023-06-19T04:07:43;9.90;99.70
3648;DHT22;1840;48.892;15.312;2023-06-19T04:10:11;9.90;99.70
3648;DHT22;1840;48.892;15.312;2023-06-19T04:12:39;9.90;99.70
3648;DHT22;1840;48.892;15.312;2023-06-19T04:15:09;10.20;99.50
3648;DHT22;1840;48.892;15.312;2023-06-19T04:17:38;10.30;99.40
3648;DHT22;1840;48.892;15.312;2023-06-19T04:20:07;10.40;99.40
3648;DHT22;1840;48.892;15.312;2023-06-19T04:22:38;10.40;99.40
3648;DHT22;1840;48.892;15.312;2023-06-19T04:25:08;10.50;99.30
3648;DHT22;1840;48.892;15.312;2023-06-19T04:27:36;10.50;99.40
3648;DHT22;1840;48.892;15.312;2023-06-19T04:30:06;10.40;99.80
3648;DHT22;1840;48.892;15.312;2023-06-19T04:32:35;10.60;99.80
3648;DHT22;1840;48.892;15.312;2023-06-19T04:35:08;10.70;99.60
3648;DHT22;1840;48.892;15.312;2023-06-19T04:37:36;10.70;99.60
3648;DHT22;1840;48.892;15.312;2023-06-19T04:40:05;10.90;99.70
3648;DHT22;1840;48.892;15.312;2023-06-19T04:42:34;11.00;99.80
3648;DHT22;1840;48.892;15.312;2023-06-19T04:45:06;11.10;99.70
3648;DHT22;1840;48.892;15.312;2023-06-19T04:47:35;11.20;99.70
3648;DHT22;1840;48.892;15.312;2023-06-19T04:50:18;11.20;99.90
3648;DHT22;1840;48.892;15.312;2023-06-19T04:52:47;11.30;99.90
3648;DHT22;1840;48.892;15.312;2023-06-19T04:55:18;11.30;99.90
3648;DHT22;1840;48.892;15.312;2023-06-19T04:57:46;11.50;99.90
3648;DHT22;1840;48.892;15.312;2023-06-19T05:00:15;11.60;99.80
3648;DHT22;1840;48.892;15.312;2023-06-19T05:02:47;11.70;99.90
3648;DHT22;1840;48.892;15.312;2023-06-19T05:05:15;11.90;99.90
3648;DHT22;1840;48.892;15.312;2023-06-19T05:07:44;12.00;99.90
3648;DHT22;1840;48.892;15.312;2023-06-19T05:10:13;12.10;99.90
3648;DHT22;1840;48.892;15.312;2023-06-19T05:12:41;12.30;99.90
3648;DHT22;1840;48.892;15.312;2023-06-19T05:15:10;12.40;99.90
3648;DHT22;1840;48.892;15.312;2023-06-19T05:17:38;12.50;99.90
3648;DHT22;1840;48.892;15.312;2023-06-19T05:20:09;12.50;99.90
3648;DHT22;1840;48.892;15.312;2023-06-19T05:22:38;12.70;99.90
3648;DHT22;1840;48.892;15.312;2023-06-19T05:25:07;12.80;99.60
3648;DHT22;1840;48.892;15.312;2023-06-19T05:27:35;12.90;99.70
3648;DHT22;1840;48.892;15.312;2023-06-19T05:30:05;13.00;99.80
3648;DHT22;1840;48.892;15.312;2023-06-19T05:32:33;13.30;99.70
3648;DHT22;1840;48.892;15.312;2023-06-19T05:35:01;13.50;99.70
3648;DHT22;1840;48.892;15.312;2023-06-19T05:37:31;13.80;99.70
3648;DHT22;1840;48.892;15.312;2023-06-19T05:40:00;14.10;99.30
3648;DHT22;1840;48.892;15.312;2023-06-19T05:42:28;14.40;98.70
3648;DHT22;1840;48.892;15.312;2023-06-19T05:44:56;14.80;98.90
3648;DHT22;1840;48.892;15.312;2023-06-19T05:47:27;15.10;98.10
3648;DHT22;1840;48.892;15.312;2023-06-19T05:49:57;15.60;98.00
3648;DHT22;1840;48.892;15.312;2023-06-19T05:52:25;16.10;97.30
3648;DHT22;1840;48.892;15.312;2023-06-19T05:54:55;16.40;95.50
3648;DHT22;1840;48.892;15.312;2023-06-19T05:57:24;16.90;96.10
3648;DHT22;1840;48.892;15.312;2023-06-19T05:59:52;17.10;95.10
3648;DHT22;1840;48.892;15.312;2023-06-19T06:02:21;17.70;94.00
3648;DHT22;1840;48.892;15.312;2023-06-19T06:04:49;17.90;93.00
3648;DHT22;1840;48.892;15.312;2023-06-19T06:07:18;18.00;93.60
3648;DHT22;1840;48.892;15.312;2023-06-19T06:09:46;18.00;93.50
3648;DHT22;1840;48.892;15.312;2023-06-19T06:12:15;18.10;93.60
3648;DHT22;1840;48.892;15.312;2023-06-19T06:14:43;18.20;92.90
3648;DHT22;1840;48.892;15.312;2023-06-19T06:17:11;17.90;93.50
3648;DHT22;1840;48.892;15.312;2023-06-19T06:19:40;17.70;94.00
3648;DHT22;1840;48.892;15.312;2023-06-19T06:22:08;17.80;93.90
3648;DHT22;1840;48.892;15.312;2023-06-19T06:24:36;17.70;94.10
3648;DHT22;1840;48.892;15.312;2023-06-19T06:27:06;17.60;94.50
3648;DHT22;1840;48.892;15.312;2023-06-19T06:29:35;17.50;94.60
3648;DHT22;1840;48.892;15.312;2023-06-19T06:32:05;17.40;94.80
3648;DHT22;1840;48.892;15.312;2023-06-19T06:34:33;17.50;94.90
3648;DHT22;1840;48.892;15.312;2023-06-19T06:37:02;17.50;95.00
3648;DHT22;1840;48.892;15.312;2023-06-19T06:39:32;17.50;95.10
3648;DHT22;1840;48.892;15.312;2023-06-19T06:42:00;17.60;95.00
3648;DHT22;1840;48.892;15.312;2023-06-19T06:44:28;17.50;95.10
3648;DHT22;1840;48.892;15.312;2023-06-19T06:46:58;17.50;94.90
3648;DHT22;1840;48.892;15.312;2023-06-19T06:49:26;17.50;95.30
3648;DHT22;1840;48.892;15.312;2023-06-19T06:51:54;17.40;95.00
3648;DHT22;1840;48.892;15.312;2023-06-19T06:54:24;17.30;95.20
3648;DHT22;1840;48.892;15.312;2023-06-19T06:56:52;17.40;95.50
3648;DHT22;1840;48.892;15.312;2023-06-19T06:59:25;17.50;95.40
3648;DHT22;1840;48.892;15.312;2023-06-19T07:01:54;17.50;95.20
3648;DHT22;1840;48.892;15.312;2023-06-19T07:04:24;17.60;94.90
3648;DHT22;1840;48.892;15.312;2023-06-19T07:06:53;17.50;93.90
3648;DHT22;1840;48.892;15.312;2023-06-19T07:09:21;17.50;94.60
3648;DHT22;1840;48.892;15.312;2023-06-19T07:11:49;17.70;94.50
3648;DHT22;1840;48.892;15.312;2023-06-19T07:14:20;17.70;94.10
3648;DHT22;1840;48.892;15.312;2023-06-19T07:16:48;17.70;94.20
3648;DHT22;1840;48.892;15.312;2023-06-19T07:19:17;17.70;93.50
3648;DHT22;1840;48.892;15.312;2023-06-19T07:21:47;17.70;94.10
3648;DHT22;1840;48.892;15.312;2023-06-19T07:24:15;17.60;94.30
3648;DHT22;1840;48.892;15.312;2023-06-19T07:26:43;17.70;94.30
3648;DHT22;1840;48.892;15.312;2023-06-19T07:29:13;17.80;94.20
3648;DHT22;1840;48.892;15.312;2023-06-19T07:31:41;17.80;93.90
3648;DHT22;1840;48.892;15.312;2023-06-19T07:34:10;18.00;94.10
3648;DHT22;1840;48.892;15.312;2023-06-19T07:36:38;18.20;94.10
3648;DHT22;1840;48.892;15.312;2023-06-19T07:39:07;18.30;94.20
3648;DHT22;1840;48.892;15.312;2023-06-19T07:41:35;18.50;94.30
3648;DHT22;1840;48.892;15.312;2023-06-19T07:44:04;18.50;94.00
3648;DHT22;1840;48.892;15.312;2023-06-19T07:46:32;18.70;94.40
3648;DHT22;1840;48.892;15.312;2023-06-19T07:49:00;18.80;94.70
3648;DHT22;1840;48.892;15.312;2023-06-19T07:51:28;18.80;94.40
3648;DHT22;1840;48.892;15.312;2023-06-19T07:53:56;18.80;94.60
3648;DHT22;1840;48.892;15.312;2023-06-19T07:56:25;19.10;94.60
3648;DHT22;1840;48.892;15.312;2023-06-19T07:58:54;19.20;94.90
3648;DHT22;1840;48.892;15.312;2023-06-19T08:01:22;19.30;94.70
3648;DHT22;1840;48.892;15.312;2023-06-19T08:03:50;19.50;95.00
3648;DHT22;1840;48.892;15.312;2023-06-19T08:06:19;19.50;94.50
3648;DHT22;1840;48.892;15.312;2023-06-19T08:08:47;19.70;94.60
3648;DHT22;1840;48.892;15.312;2023-06-19T08:11:15;19.90;94.70
3648;DHT22;1840;48.892;15.312;2023-06-19T08:13:45;20.00;94.80
3648;DHT22;1840;48.892;15.312;2023-06-19T08:16:14;20.20;94.60
3648;DHT22;1840;48.892;15.312;2023-06-19T08:18:43;20.30;94.40
3648;DHT22;1840;48.892;15.312;2023-06-19T08:21:11;20.60;94.60
3648;DHT22;1840;48.892;15.312;2023-06-19T08:23:39;20.90;94.70
3648;DHT22;1840;48.892;15.312;2023-06-19T08:26:10;21.10;94.00
3648;DHT22;1840;48.892;15.312;2023-06-19T08:28:38;21.20;94.00
3648;DHT22;1840;48.892;15.312;2023-06-19T08:31:10;21.30;94.10
3648;DHT22;1840;48.892;15.312;2023-06-19T08:33:38;21.40;93.70
3648;DHT22;1840;48.892;15.312;2023-06-19T08:36:06;21.40;94.20
3648;DHT22;1840;48.892;15.312;2023-06-19T08:38:34;21.80;94.60
3648;DHT22;1840;48.892;15.312;2023-06-19T08:41:02;21.90;94.00
3648;DHT22;1840;48.892;15.312;2023-06-19T08:43:31;21.90;94.10
3648;DHT22;1840;48.892;15.312;2023-06-19T08:46:13;21.90;94.70
3648;DHT22;1840;48.892;15.312;2023-06-19T08:48:41;22.10;94.80
3648;DHT22;1840;48.892;15.312;2023-06-19T08:51:10;22.30;94.10
3648;DHT22;1840;48.892;15.312;2023-06-19T08:53:44;22.30;94.10
3648;DHT22;1840;48.892;15.312;2023-06-19T08:56:12;22.40;93.60
3648;DHT22;1840;48.892;15.312;2023-06-19T08:58:41;22.60;93.80
3648;DHT22;1840;48.892;15.312;2023-06-19T09:01:09;22.80;94.40
3648;DHT22;1840;48.892;15.312;2023-06-19T09:03:38;22.80;93.60
3648;DHT22;1840;48.892;15.312;2023-06-19T09:06:07;22.80;93.50
3648;DHT22;1840;48.892;15.312;2023-06-19T09:08:35;22.90;94.30
3648;DHT22;1840;48.892;15.312;2023-06-19T09:11:05;23.00;94.60
3648;DHT22;1840;48.892;15.312;2023-06-19T09:13:36;23.10;94.00
3648;DHT22;1840;48.892;15.312;2023-06-19T09:16:06;23.30;93.50
3648;DHT22;1840;48.892;15.312;2023-06-19T09:18:44;23.40;92.90
3648;DHT22;1840;48.892;15.312;2023-06-19T09:21:15;23.20;93.00
3648;DHT22;1840;48.892;15.312;2023-06-19T09:23:45;23.30;92.70
3648;DHT22;1840;48.892;15.312;2023-06-19T09:26:14;23.40;93.40
3648;DHT22;1840;48.892;15.312;2023-06-19T09:28:43;23.50;93.30
3648;DHT22;1840;48.892;15.312;2023-06-19T09:31:12;23.50;92.90
3648;DHT22;1840;48.892;15.312;2023-06-19T09:33:40;23.50;92.50
3648;DHT22;1840;48.892;15.312;2023-06-19T09:36:10;23.60;92.50
3648;DHT22;1840;48.892;15.312;2023-06-19T09:38:39;23.70;92.70
3648;DHT22;1840;48.892;15.312;2023-06-19T09:41:08;23.90;92.40
3648;DHT22;1840;48.892;15.312;2023-06-19T09:43:38;24.10;89.60
3648;DHT22;1840;48.892;15.312;2023-06-19T09:46:07;24.50;83.20
3648;DHT22;1840;48.892;15.312;2023-06-19T09:48:40;24.70;83.60
3648;DHT22;1840;48.892;15.312;2023-06-19T09:51:15;25.10;80.10
3648;DHT22;1840;48.892;15.312;2023-06-19T09:53:45;25.40;80.50
3648;DHT22;1840;48.892;15.312;2023-06-19T09:56:14;25.40;77.50
3648;DHT22;1840;48.892;15.312;2023-06-19T09:58:43;25.40;74.00
3648;DHT22;1840;48.892;15.312;2023-06-19T10:01:11;25.70;69.80
3648;DHT22;1840;48.892;15.312;2023-06-19T10:03:40;25.70;69.40
3648;DHT22;1840;48.892;15.312;2023-06-19T10:06:14;25.80;70.20
3648;DHT22;1840;48.892;15.312;2023-06-19T10:08:44;25.60;66.50
3648;DHT22;1840;48.892;15.312;2023-06-19T10:11:13;25.60;68.80
3648;DHT22;1840;48.892;15.312;2023-06-19T10:13:42;25.70;72.60
3648;DHT22;1840;48.892;15.312;2023-06-19T10:16:19;25.70;76.80
3648;DHT22;1840;48.892;15.312;2023-06-19T10:18:48;25.50;75.80
3648;DHT22;1840;48.892;15.312;2023-06-19T10:21:18;25.50;75.60
3648;DHT22;1840;48.892;15.312;2023-06-19T10:23:53;25.50;75.40
3648;DHT22;1840;48.892;15.312;2023-06-19T10:26:30;25.40;75.60
3648;DHT22;1840;48.892;15.312;2023-06-19T10:28:58;25.30;76.20
3648;DHT22;1840;48.892;15.312;2023-06-19T10:31:26;25.30;65.90
3648;DHT22;1840;48.892;15.312;2023-06-19T10:33:56;25.60;64.80
3648;DHT22;1840;48.892;15.312;2023-06-19T10:36:26;25.80;69.20
3648;DHT22;1840;48.892;15.312;2023-06-19T10:38:54;26.00;70.30
3648;DHT22;1840;48.892;15.312;2023-06-19T10:41:24;26.10;73.30
3648;DHT22;1840;48.892;15.312;2023-06-19T10:43:53;25.80;70.10
3648;DHT22;1840;48.892;15.312;2023-06-19T10:46:22;26.00;70.20
3648;DHT22;1840;48.892;15.312;2023-06-19T10:48:51;26.20;71.40
3648;DHT22;1840;48.892;15.312;2023-06-19T10:51:24;26.10;67.00
3648;DHT22;1840;48.892;15.312;2023-06-19T10:53:54;26.00;69.60
3648;DHT22;1840;48.892;15.312;2023-06-19T10:56:23;26.20;70.10
3648;DHT22;1840;48.892;15.312;2023-06-19T10:58:57;26.30;72.10
3648;DHT22;1840;48.892;15.312;2023-06-19T11:01:34;26.20;70.30
3648;DHT22;1840;48.892;15.312;2023-06-19T11:04:04;26.30;70.00
3648;DHT22;1840;48.892;15.312;2023-06-19T11:06:35;26.50;69.60
3648;DHT22;1840;48.892;15.312;2023-06-19T11:09:03;26.60;69.50
3648;DHT22;1840;48.892;15.312;2023-06-19T11:11:37;26.80;68.50
3648;DHT22;1840;48.892;15.312;2023-06-19T11:14:06;26.80;68.80
3648;DHT22;1840;48.892;15.312;2023-06-19T11:16:35;26.90;63.50
3648;DHT22;1840;48.892;15.312;2023-06-19T11:19:07;27.00;66.40
3648;DHT22;1840;48.892;15.312;2023-06-19T11:21:37;27.00;64.70
3648;DHT22;1840;48.892;15.312;2023-06-19T11:24:10;27.10;66.60
3648;DHT22;1840;48.892;15.312;2023-06-19T11:26:39;27.00;68.30
3648;DHT22;1840;48.892;15.312;2023-06-19T11:29:15;27.10;66.90
3648;DHT22;1840;48.892;15.312;2023-06-19T11:31:45;27.10;68.50
3648;DHT22;1840;48.892;15.312;2023-06-19T11:34:14;27.20;66.60
3648;DHT22;1840;48.892;15.312;2023-06-19T11:36:44;27.20;66.20
3648;DHT22;1840;48.892;15.312;2023-06-19T11:39:14;27.00;66.10
3648;DHT22;1840;48.892;15.312;2023-06-19T11:41:44;26.70;66.10
3648;DHT22;1840;48.892;15.312;2023-06-19T11:44:12;26.80;65.00
3648;DHT22;1840;48.892;15.312;2023-06-19T11:46:41;26.80;64.60
3648;DHT22;1840;48.892;15.312;2023-06-19T11:49:11;26.90;65.30
3648;DHT22;1840;48.892;15.312;2023-06-19T11:51:39;26.90;65.80
3648;DHT22;1840;48.892;15.312;2023-06-19T11:54:10;26.90;64.50
3648;DHT22;1840;48.892;15.312;2023-06-19T11:56:39;26.90;67.90
3648;DHT22;1840;48.892;15.312;2023-06-19T11:59:07;26.80;66.60
3648;DHT22;1840;48.892;15.312;2023-06-19T12:01:36;26.40;70.60
3648;DHT22;1840;48.892;15.312;2023-06-19T12:04:06;26.50;68.50
3648;DHT22;1840;48.892;15.312;2023-06-19T12:06:35;26.70;66.40
3648;DHT22;1840;48.892;15.312;2023-06-19T12:09:04;27.00;68.70
3648;DHT22;1840;48.892;15.312;2023-06-19T12:11:34;27.20;65.10
3648;DHT22;1840;48.892;15.312;2023-06-19T12:14:02;27.20;66.10
3648;DHT22;1840;48.892;15.312;2023-06-19T12:16:30;27.20;63.20
3648;DHT22;1840;48.892;15.312;2023-06-19T12:18:58;27.30;64.80
3648;DHT22;1840;48.892;15.312;2023-06-19T12:21:26;27.20;63.20
3648;DHT22;1840;48.892;15.312;2023-06-19T12:24:05;27.10;62.90
3648;DHT22;1840;48.892;15.312;2023-06-19T12:26:35;27.20;63.70
3648;DHT22;1840;48.892;15.312;2023-06-19T12:29:04;27.30;62.50
3648;DHT22;1840;48.892;15.312;2023-06-19T12:31:34;27.50;61.30
3648;DHT22;1840;48.892;15.312;2023-06-19T12:34:03;27.70;61.80
3648;DHT22;1840;48.892;15.312;2023-06-19T12:36:52;27.80;63.60
3648;DHT22;1840;48.892;15.312;2023-06-19T12:39:21;28.00;60.60
3648;DHT22;1840;48.892;15.312;2023-06-19T12:41:50;28.00;59.50
3648;DHT22;1840;48.892;15.312;2023-06-19T12:44:20;27.80;59.70
3648;DHT22;1840;48.892;15.312;2023-06-19T12:46:49;27.50;59.70
3648;DHT22;1840;48.892;15.312;2023-06-19T12:49:17;27.30;59.10
3648;DHT22;1840;48.892;15.312;2023-06-19T12:51:45;27.30;59.90
3648;DHT22;1840;48.892;15.312;2023-06-19T12:54:17;27.40;61.30
3648;DHT22;1840;48.892;15.312;2023-06-19T12:56:46;27.40;61.20
3648;DHT22;1840;48.892;15.312;2023-06-19T12:59:15;27.60;61.20
3648;DHT22;1840;48.892;15.312;2023-06-19T13:01:43;27.60;59.00
3648;DHT22;1840;48.892;15.312;2023-06-19T13:04:12;27.60;60.50
3648;DHT22;1840;48.892;15.312;2023-06-19T13:06:41;27.70;59.00
3648;DHT22;1840;48.892;15.312;2023-06-19T13:09:09;27.80;61.50
3648;DHT22;1840;48.892;15.312;2023-06-19T13:11:37;27.80;62.90
3648;DHT22;1840;48.892;15.312;2023-06-19T13:14:05;28.00;59.90
3648;DHT22;1840;48.892;15.312;2023-06-19T13:16:35;27.80;57.70
3648;DHT22;1840;48.892;15.312;2023-06-19T13:19:06;27.60;57.80
3648;DHT22;1840;48.892;15.312;2023-06-19T13:21:34;27.50;58.40
3648;DHT22;1840;48.892;15.312;2023-06-19T13:24:03;27.30;58.40
3648;DHT22;1840;48.892;15.312;2023-06-19T13:26:32;27.20;57.70
3648;DHT22;1840;48.892;15.312;2023-06-19T13:29:00;27.30;57.90
3648;DHT22;1840;48.892;15.312;2023-06-19T13:31:28;27.30;60.70
3648;DHT22;1840;48.892;15.312;2023-06-19T13:33:57;27.40;58.80
3648;DHT22;1840;48.892;15.312;2023-06-19T13:36:25;27.30;58.90
3648;DHT22;1840;48.892;15.312;2023-06-19T13:38:54;27.40;58.30
3648;DHT22;1840;48.892;15.312;2023-06-19T13:41:22;27.60;59.00
3648;DHT22;1840;48.892;15.312;2023-06-19T13:43:51;27.70;59.50
3648;DHT22;1840;48.892;15.312;2023-06-19T13:46:20;27.90;58.10
3648;DHT22;1840;48.892;15.312;2023-06-19T13:48:49;28.00;58.80
3648;DHT22;1840;48.892;15.312;2023-06-19T13:51:20;28.20;58.50
3648;DHT22;1840;48.892;15.312;2023-06-19T13:53:50;28.20;58.50
3648;DHT22;1840;48.892;15.312;2023-06-19T13:56:18;28.30;58.50
3648;DHT22;1840;48.892;15.312;2023-06-19T13:58:46;28.30;59.20
3648;DHT22;1840;48.892;15.312;2023-06-19T14:01:14;28.40;60.30
3648;DHT22;1840;48.892;15.312;2023-06-19T14:03:42;28.10;57.60
3648;DHT22;1840;48.892;15.312;2023-06-19T14:06:11;27.90;61.60
3648;DHT22;1840;48.892;15.312;2023-06-19T14:08:40;27.40;60.20
3648;DHT22;1840;48.892;15.312;2023-06-19T14:11:08;27.10;61.20
3648;DHT22;1840;48.892;15.312;2023-06-19T14:13:36;27.10;63.70
3648;DHT22;1840;48.892;15.312;2023-06-19T14:16:05;27.00;59.70
3648;DHT22;1840;48.892;15.312;2023-06-19T14:18:33;27.20;60.20
3648;DHT22;1840;48.892;15.312;2023-06-19T14:21:03;27.40;63.40
3648;DHT22;1840;48.892;15.312;2023-06-19T14:23:32;27.30;66.40
3648;DHT22;1840;48.892;15.312;2023-06-19T14:26:02;27.20;65.90
3648;DHT22;1840;48.892;15.312;2023-06-19T14:28:30;27.20;61.00
3648;DHT22;1840;48.892;15.312;2023-06-19T14:30:58;27.20;64.50
3648;DHT22;1840;48.892;15.312;2023-06-19T14:33:30;27.20;61.30
3648;DHT22;1840;48.892;15.312;2023-06-19T14:35:59;27.30;60.70
3648;DHT22;1840;48.892;15.312;2023-06-19T14:38:29;27.50;61.40
3648;DHT22;1840;48.892;15.312;2023-06-19T14:41:02;27.60;62.40
3648;DHT22;1840;48.892;15.312;2023-06-19T14:43:30;27.60;66.60
3648;DHT22;1840;48.892;15.312;2023-06-19T14:46:00;27.80;64.30
3648;DHT22;1840;48.892;15.312;2023-06-19T14:48:28;27.90;62.20
3648;DHT22;1840;48.892;15.312;2023-06-19T14:50:57;27.80;61.60
3648;DHT22;1840;48.892;15.312;2023-06-19T14:53:25;27.90;64.90
3648;DHT22;1840;48.892;15.312;2023-06-19T14:55:53;28.00;61.90
3648;DHT22;1840;48.892;15.312;2023-06-19T14:58:22;28.00;59.70
3648;DHT22;1840;48.892;15.312;2023-06-19T15:00:53;27.90;59.60
3648;DHT22;1840;48.892;15.312;2023-06-19T15:03:21;27.70;63.30
3648;DHT22;1840;48.892;15.312;2023-06-19T15:05:53;27.20;64.50
3648;DHT22;1840;48.892;15.312;2023-06-19T15:08:22;26.90;65.50
3648;DHT22;1840;48.892;15.312;2023-06-19T15:10:51;27.00;66.50
3648;DHT22;1840;48.892;15.312;2023-06-19T15:13:19;27.00;66.70
3648;DHT22;1840;48.892;15.312;2023-06-19T15:15:48;26.40;66.90
3648;DHT22;1840;48.892;15.312;2023-06-19T15:18:19;26.10;66.90
3648;DHT22;1840;48.892;15.312;2023-06-19T15:20:47;25.90;68.10
3648;DHT22;1840;48.892;15.312;2023-06-19T15:23:15;26.10;67.80
3648;DHT22;1840;48.892;15.312;2023-06-19T15:25:44;26.00;67.90
3648;DHT22;1840;48.892;15.312;2023-06-19T15:28:12;25.90;68.30
3648;DHT22;1840;48.892;15.312;2023-06-19T15:30:40;26.00;69.40
3648;DHT22;1840;48.892;15.312;2023-06-19T15:33:09;26.10;69.00
3648;DHT22;1840;48.892;15.312;2023-06-19T15:35:37;26.10;68.90
3648;DHT22;1840;48.892;15.312;2023-06-19T15:38:05;26.20;69.40
3648;DHT22;1840;48.892;15.312;2023-06-19T15:40:33;26.30;69.90
3648;DHT22;1840;48.892;15.312;2023-06-19T15:43:01;26.10;69.50
3648;DHT22;1840;48.892;15.312;2023-06-19T15:45:29;25.80;70.20
3648;DHT22;1840;48.892;15.312;2023-06-19T15:47:57;25.70;70.60
3648;DHT22;1840;48.892;15.312;2023-06-19T15:50:27;25.80;70.70
3648;DHT22;1840;48.892;15.312;2023-06-19T15:52:55;25.70;70.40
3648;DHT22;1840;48.892;15.312;2023-06-19T15:55:23;25.60;71.80
3648;DHT22;1840;48.892;15.312;2023-06-19T15:57:53;25.70;71.20
3648;DHT22;1840;48.892;15.312;2023-06-19T16:00:21;25.90;71.30